In Rescue
 
Open Full Screen Window  High Contrast Mode
Wind Gusting 30 knots
24
January 20, 2021 5:19 PM CST
Weather Information
Wind Direction
  300 °
Wind Speed
  24 kt (28 mph)
Wind Gust
  30 kt (35 mph)
Altimeter
29.62 in
Visibility
10 SM
Temperature
03° C
37° F
Dewpoint
-07° C
19° F
Humidity
48%
1hr Rain Fall
00.00 in.
24hr Rain Fall
00.00 in.
Sky Condition
Clear
VFR

METAR KMOX 202319Z AUTO 30024G30KT 10SM CLR 03/M07 A2962 RMK AO2

FAA Disclaimer: The data displayed is for advisory purposes only and is not to be used for flight planning or operations.